sensor_id;sensor_type;location;lat;lon;timestamp;P1;durP1;ratioP1;P2;durP2;ratioP2
39982;SDS011;25670;44.782;10.356;2023-12-14T00:01:39;68.78;;;28.88;;
39982;SDS011;25670;44.782;10.356;2023-12-14T00:04:07;65.65;;;28.13;;
39982;SDS011;25670;44.782;10.356;2023-12-14T00:06:33;68.00;;;27.23;;
39982;SDS011;25670;44.782;10.356;2023-12-14T00:08:59;55.13;;;24.08;;
39982;SDS011;25670;44.782;10.356;2023-12-14T00:11:26;63.90;;;25.17;;
39982;SDS011;25670;44.782;10.356;2023-12-14T00:13:52;57.05;;;26.13;;
39982;SDS011;25670;44.782;10.356;2023-12-14T00:16:18;59.90;;;25.17;;
39982;SDS011;25670;44.782;10.356;2023-12-14T00:18:44;61.15;;;25.25;;
39982;SDS011;25670;44.782;10.356;2023-12-14T00:21:10;54.70;;;25.05;;
39982;SDS011;25670;44.782;10.356;2023-12-14T00:23:37;59.45;;;25.10;;
39982;SDS011;25670;44.782;10.356;2023-12-14T00:26:03;52.03;;;24.33;;
39982;SDS011;25670;44.782;10.356;2023-12-14T00:28:29;68.82;;;27.30;;
39982;SDS011;25670;44.782;10.356;2023-12-14T00:30:55;61.15;;;27.48;;
39982;SDS011;25670;44.782;10.356;2023-12-14T00:33:22;73.47;;;28.40;;
39982;SDS011;25670;44.782;10.356;2023-12-14T00:35:48;68.30;;;27.42;;
39982;SDS011;25670;44.782;10.356;2023-12-14T00:38:15;78.70;;;28.75;;
39982;SDS011;25670;44.782;10.356;2023-12-14T00:40:41;70.72;;;28.77;;
39982;SDS011;25670;44.782;10.356;2023-12-14T00:43:07;74.15;;;28.73;;
39982;SDS011;25670;44.782;10.356;2023-12-14T00:45:33;71.47;;;28.58;;
39982;SDS011;25670;44.782;10.356;2023-12-14T00:47:59;85.72;;;30.52;;
39982;SDS011;25670;44.782;10.356;2023-12-14T00:50:26;72.43;;;28.50;;
39982;SDS011;25670;44.782;10.356;2023-12-14T00:52:52;79.00;;;30.02;;
39982;SDS011;25670;44.782;10.356;2023-12-14T00:55:18;84.47;;;29.65;;
39982;SDS011;25670;44.782;10.356;2023-12-14T00:57:44;83.95;;;31.08;;
39982;SDS011;25670;44.782;10.356;2023-12-14T01:00:10;77.90;;;29.73;;
39982;SDS011;25670;44.782;10.356;2023-12-14T01:02:38;85.15;;;29.30;;
39982;SDS011;25670;44.782;10.356;2023-12-14T01:05:04;83.10;;;31.75;;
39982;SDS011;25670;44.782;10.356;2023-12-14T01:07:31;83.47;;;30.92;;
39982;SDS011;25670;44.782;10.356;2023-12-14T01:09:57;81.75;;;31.15;;
39982;SDS011;25670;44.782;10.356;2023-12-14T01:12:23;79.30;;;30.95;;
39982;SDS011;25670;44.782;10.356;2023-12-14T01:14:49;90.07;;;31.58;;
39982;SDS011;25670;44.782;10.356;2023-12-14T01:17:15;91.50;;;33.53;;
39982;SDS011;25670;44.782;10.356;2023-12-14T01:19:41;93.18;;;33.90;;
39982;SDS011;25670;44.782;10.356;2023-12-14T01:22:08;87.20;;;33.38;;
39982;SDS011;25670;44.782;10.356;2023-12-14T01:24:34;89.80;;;33.55;;
39982;SDS011;25670;44.782;10.356;2023-12-14T01:27:00;86.90;;;35.53;;
39982;SDS011;25670;44.782;10.356;2023-12-14T01:29:26;92.57;;;34.97;;
39982;SDS011;25670;44.782;10.356;2023-12-14T01:31:55;76.28;;;31.05;;
39982;SDS011;25670;44.782;10.356;2023-12-14T01:34:21;92.47;;;33.22;;
39982;SDS011;25670;44.782;10.356;2023-12-14T01:36:50;87.57;;;33.38;;
39982;SDS011;25670;44.782;10.356;2023-12-14T01:39:16;87.88;;;33.08;;
39982;SDS011;25670;44.782;10.356;2023-12-14T01:41:42;78.63;;;32.22;;
39982;SDS011;25670;44.782;10.356;2023-12-14T01:44:08;79.28;;;31.55;;
39982;SDS011;25670;44.782;10.356;2023-12-14T01:46:35;88.10;;;34.08;;
39982;SDS011;25670;44.782;10.356;2023-12-14T01:49:01;76.35;;;30.35;;
39982;SDS011;25670;44.782;10.356;2023-12-14T01:51:27;85.45;;;32.78;;
39982;SDS011;25670;44.782;10.356;2023-12-14T01:53:53;83.68;;;33.47;;
39982;SDS011;25670;44.782;10.356;2023-12-14T01:56:20;86.55;;;32.85;;
39982;SDS011;25670;44.782;10.356;2023-12-14T01:58:46;79.70;;;31.52;;
39982;SDS011;25670;44.782;10.356;2023-12-14T02:01:19;70.60;;;31.05;;
39982;SDS011;25670;44.782;10.356;2023-12-14T02:03:54;80.28;;;32.03;;
39982;SDS011;25670;44.782;10.356;2023-12-14T02:06:21;73.97;;;30.13;;
39982;SDS011;25670;44.782;10.356;2023-12-14T02:08:47;78.80;;;32.50;;
39982;SDS011;25670;44.782;10.356;2023-12-14T02:11:13;73.45;;;31.15;;
39982;SDS011;25670;44.782;10.356;2023-12-14T02:13:40;77.65;;;33.20;;
39982;SDS011;25670;44.782;10.356;2023-12-14T02:16:06;80.93;;;32.58;;
39982;SDS011;25670;44.782;10.356;2023-12-14T02:18:32;80.05;;;34.15;;
39982;SDS011;25670;44.782;10.356;2023-12-14T02:20:59;77.82;;;34.55;;
39982;SDS011;25670;44.782;10.356;2023-12-14T02:23:25;70.78;;;31.00;;
39982;SDS011;25670;44.782;10.356;2023-12-14T02:25:51;72.25;;;32.50;;
39982;SDS011;25670;44.782;10.356;2023-12-14T02:28:17;66.47;;;29.02;;
39982;SDS011;25670;44.782;10.356;2023-12-14T02:30:43;70.10;;;29.65;;
39982;SDS011;25670;44.782;10.356;2023-12-14T02:33:10;67.18;;;28.45;;
39982;SDS011;25670;44.782;10.356;2023-12-14T02:35:36;76.15;;;29.67;;
39982;SDS011;25670;44.782;10.356;2023-12-14T02:38:02;75.50;;;30.33;;
39982;SDS011;25670;44.782;10.356;2023-12-14T02:40:31;72.03;;;29.80;;
39982;SDS011;25670;44.782;10.356;2023-12-14T02:42:57;67.50;;;28.52;;
39982;SDS011;25670;44.782;10.356;2023-12-14T02:45:23;68.65;;;29.85;;
39982;SDS011;25670;44.782;10.356;2023-12-14T02:47:50;72.88;;;31.55;;
39982;SDS011;25670;44.782;10.356;2023-12-14T02:50:17;73.18;;;30.10;;
39982;SDS011;25670;44.782;10.356;2023-12-14T02:52:44;81.40;;;31.48;;
39982;SDS011;25670;44.782;10.356;2023-12-14T02:55:10;74.05;;;31.77;;
39982;SDS011;25670;44.782;10.356;2023-12-14T02:57:36;74.80;;;31.63;;
39982;SDS011;25670;44.782;10.356;2023-12-14T03:00:03;67.90;;;31.48;;
39982;SDS011;25670;44.782;10.356;2023-12-14T03:02:30;65.22;;;29.73;;
39982;SDS011;25670;44.782;10.356;2023-12-14T03:04:56;71.22;;;31.90;;
39982;SDS011;25670;44.782;10.356;2023-12-14T03:07:22;69.72;;;29.80;;
39982;SDS011;25670;44.782;10.356;2023-12-14T03:09:49;66.35;;;28.95;;
39982;SDS011;25670;44.782;10.356;2023-12-14T03:12:15;64.82;;;29.45;;
39982;SDS011;25670;44.782;10.356;2023-12-14T03:14:41;71.75;;;29.92;;
39982;SDS011;25670;44.782;10.356;2023-12-14T03:17:08;68.97;;;31.00;;
39982;SDS011;25670;44.782;10.356;2023-12-14T03:19:42;66.55;;;29.65;;
39982;SDS011;25670;44.782;10.356;2023-12-14T03:22:08;64.30;;;30.20;;
39982;SDS011;25670;44.782;10.356;2023-12-14T03:24:35;70.00;;;30.67;;
39982;SDS011;25670;44.782;10.356;2023-12-14T03:27:02;71.50;;;30.38;;
39982;SDS011;25670;44.782;10.356;2023-12-14T03:29:29;60.40;;;29.23;;
39982;SDS011;25670;44.782;10.356;2023-12-14T03:31:56;65.30;;;30.27;;
39982;SDS011;25670;44.782;10.356;2023-12-14T03:34:22;66.00;;;28.52;;
39982;SDS011;25670;44.782;10.356;2023-12-14T03:36:49;61.10;;;27.38;;
39982;SDS011;25670;44.782;10.356;2023-12-14T03:39:16;61.20;;;27.25;;
39982;SDS011;25670;44.782;10.356;2023-12-14T03:41:43;65.75;;;29.30;;
39982;SDS011;25670;44.782;10.356;2023-12-14T03:44:10;61.95;;;30.63;;
39982;SDS011;25670;44.782;10.356;2023-12-14T03:46:36;68.85;;;31.42;;
39982;SDS011;25670;44.782;10.356;2023-12-14T03:49:03;75.25;;;32.33;;
39982;SDS011;25670;44.782;10.356;2023-12-14T03:51:30;73.25;;;33.17;;
39982;SDS011;25670;44.782;10.356;2023-12-14T03:53:56;72.55;;;32.75;;
39982;SDS011;25670;44.782;10.356;2023-12-14T03:56:22;70.22;;;31.85;;
39982;SDS011;25670;44.782;10.356;2023-12-14T03:58:49;77.00;;;33.28;;
39982;SDS011;25670;44.782;10.356;2023-12-14T04:01:16;66.68;;;31.83;;
39982;SDS011;25670;44.782;10.356;2023-12-14T04:03:43;78.57;;;32.25;;
39982;SDS011;25670;44.782;10.356;2023-12-14T04:06:10;70.72;;;33.70;;
39982;SDS011;25670;44.782;10.356;2023-12-14T04:08:40;68.40;;;33.33;;
39982;SDS011;25670;44.782;10.356;2023-12-14T04:11:07;72.85;;;33.33;;
39982;SDS011;25670;44.782;10.356;2023-12-14T04:13:34;66.72;;;33.85;;
39982;SDS011;25670;44.782;10.356;2023-12-14T04:16:00;70.72;;;34.38;;
39982;SDS011;25670;44.782;10.356;2023-12-14T04:18:26;72.05;;;34.13;;
39982;SDS011;25670;44.782;10.356;2023-12-14T04:20:53;68.88;;;33.10;;
39982;SDS011;25670;44.782;10.356;2023-12-14T04:23:20;69.72;;;33.80;;
39982;SDS011;25670;44.782;10.356;2023-12-14T04:25:46;71.53;;;34.67;;
39982;SDS011;25670;44.782;10.356;2023-12-14T04:28:12;72.20;;;33.83;;
39982;SDS011;25670;44.782;10.356;2023-12-14T04:30:38;69.10;;;34.85;;
39982;SDS011;25670;44.782;10.356;2023-12-14T04:33:05;65.55;;;32.88;;
39982;SDS011;25670;44.782;10.356;2023-12-14T04:35:31;71.57;;;35.28;;
39982;SDS011;25670;44.782;10.356;2023-12-14T04:38:01;71.47;;;35.30;;
39982;SDS011;25670;44.782;10.356;2023-12-14T04:40:28;73.97;;;37.45;;
39982;SDS011;25670;44.782;10.356;2023-12-14T04:42:54;76.00;;;36.65;;
39982;SDS011;25670;44.782;10.356;2023-12-14T04:45:20;79.82;;;36.85;;
39982;SDS011;25670;44.782;10.356;2023-12-14T04:47:47;76.65;;;37.08;;
39982;SDS011;25670;44.782;10.356;2023-12-14T04:50:13;71.85;;;37.38;;
39982;SDS011;25670;44.782;10.356;2023-12-14T04:52:40;73.60;;;36.00;;
39982;SDS011;25670;44.782;10.356;2023-12-14T04:55:08;78.93;;;36.45;;
39982;SDS011;25670;44.782;10.356;2023-12-14T04:57:35;73.10;;;36.25;;
39982;SDS011;25670;44.782;10.356;2023-12-14T05:00:02;83.93;;;37.38;;
39982;SDS011;25670;44.782;10.356;2023-12-14T05:02:31;79.10;;;38.00;;
39982;SDS011;25670;44.782;10.356;2023-12-14T05:04:58;78.03;;;38.92;;
39982;SDS011;25670;44.782;10.356;2023-12-14T05:07:24;78.43;;;39.05;;
39982;SDS011;25670;44.782;10.356;2023-12-14T05:09:50;70.90;;;35.08;;
39982;SDS011;25670;44.782;10.356;2023-12-14T05:12:17;73.82;;;35.75;;
39982;SDS011;25670;44.782;10.356;2023-12-14T05:14:43;78.82;;;37.35;;
39982;SDS011;25670;44.782;10.356;2023-12-14T05:17:10;77.68;;;36.40;;
39982;SDS011;25670;44.782;10.356;2023-12-14T05:19:36;77.88;;;37.33;;
39982;SDS011;25670;44.782;10.356;2023-12-14T05:22:03;92.00;;;40.50;;
39982;SDS011;25670;44.782;10.356;2023-12-14T05:24:30;84.40;;;40.00;;
39982;SDS011;25670;44.782;10.356;2023-12-14T05:26:56;82.85;;;37.50;;
39982;SDS011;25670;44.782;10.356;2023-12-14T05:29:23;86.68;;;40.22;;
39982;SDS011;25670;44.782;10.356;2023-12-14T05:31:49;77.32;;;36.13;;
39982;SDS011;25670;44.782;10.356;2023-12-14T05:34:16;75.13;;;36.38;;
39982;SDS011;25670;44.782;10.356;2023-12-14T05:36:42;74.68;;;37.05;;
39982;SDS011;25670;44.782;10.356;2023-12-14T05:39:09;80.95;;;36.40;;
39982;SDS011;25670;44.782;10.356;2023-12-14T05:41:41;77.70;;;36.95;;
39982;SDS011;25670;44.782;10.356;2023-12-14T05:44:08;73.85;;;35.72;;
39982;SDS011;25670;44.782;10.356;2023-12-14T05:46:34;86.90;;;37.95;;
39982;SDS011;25670;44.782;10.356;2023-12-14T05:49:01;82.40;;;38.20;;
39982;SDS011;25670;44.782;10.356;2023-12-14T05:51:29;73.63;;;36.78;;
39982;SDS011;25670;44.782;10.356;2023-12-14T05:53:56;82.22;;;37.28;;
39982;SDS011;25670;44.782;10.356;2023-12-14T05:56:24;78.43;;;36.70;;
39982;SDS011;25670;44.782;10.356;2023-12-14T05:58:53;85.50;;;39.80;;
39982;SDS011;25670;44.782;10.356;2023-12-14T06:01:19;83.22;;;40.22;;
39982;SDS011;25670;44.782;10.356;2023-12-14T06:03:46;86.05;;;40.42;;
39982;SDS011;25670;44.782;10.356;2023-12-14T06:06:12;84.60;;;39.72;;
39982;SDS011;25670;44.782;10.356;2023-12-14T06:08:40;96.60;;;44.33;;
39982;SDS011;25670;44.782;10.356;2023-12-14T06:11:07;95.28;;;42.70;;
39982;SDS011;25670;44.782;10.356;2023-12-14T06:13:40;97.97;;;44.88;;
39982;SDS011;25670;44.782;10.356;2023-12-14T06:16:06;99.68;;;44.03;;
39982;SDS011;25670;44.782;10.356;2023-12-14T06:18:39;91.85;;;43.90;;
39982;SDS011;25670;44.782;10.356;2023-12-14T06:21:07;94.93;;;41.45;;
39982;SDS011;25670;44.782;10.356;2023-12-14T06:23:35;89.50;;;42.08;;
39982;SDS011;25670;44.782;10.356;2023-12-14T06:26:02;102.82;;;42.83;;
39982;SDS011;25670;44.782;10.356;2023-12-14T06:28:32;87.55;;;41.08;;
39982;SDS011;25670;44.782;10.356;2023-12-14T06:30:58;96.45;;;43.15;;
39982;SDS011;25670;44.782;10.356;2023-12-14T06:33:27;97.28;;;41.50;;
39982;SDS011;25670;44.782;10.356;2023-12-14T06:35:53;87.97;;;41.90;;
39982;SDS011;25670;44.782;10.356;2023-12-14T06:38:19;90.53;;;42.08;;
39982;SDS011;25670;44.782;10.356;2023-12-14T06:40:46;89.93;;;41.78;;
39982;SDS011;25670;44.782;10.356;2023-12-14T06:43:12;87.20;;;40.85;;
39982;SDS011;25670;44.782;10.356;2023-12-14T06:45:39;84.50;;;39.42;;
39982;SDS011;25670;44.782;10.356;2023-12-14T06:48:05;85.40;;;40.28;;
39982;SDS011;25670;44.782;10.356;2023-12-14T06:50:32;88.85;;;39.50;;
39982;SDS011;25670;44.782;10.356;2023-12-14T06:53:01;85.32;;;39.55;;
39982;SDS011;25670;44.782;10.356;2023-12-14T06:55:28;84.82;;;39.55;;
39982;SDS011;25670;44.782;10.356;2023-12-14T06:57:54;86.40;;;40.10;;
39982;SDS011;25670;44.782;10.356;2023-12-14T07:00:21;85.07;;;37.47;;
39982;SDS011;25670;44.782;10.356;2023-12-14T07:02:47;86.00;;;38.42;;
39982;SDS011;25670;44.782;10.356;2023-12-14T07:05:14;77.63;;;37.15;;
39982;SDS011;25670;44.782;10.356;2023-12-14T07:07:40;83.35;;;38.42;;
39982;SDS011;25670;44.782;10.356;2023-12-14T07:10:07;83.60;;;38.83;;
39982;SDS011;25670;44.782;10.356;2023-12-14T07:12:33;78.68;;;37.92;;
39982;SDS011;25670;44.782;10.356;2023-12-14T07:15:00;77.60;;;37.63;;
39982;SDS011;25670;44.782;10.356;2023-12-14T07:17:26;84.05;;;38.15;;
39982;SDS011;25670;44.782;10.356;2023-12-14T07:19:52;80.95;;;36.90;;
39982;SDS011;25670;44.782;10.356;2023-12-14T07:22:19;81.43;;;38.63;;
39982;SDS011;25670;44.782;10.356;2023-12-14T07:24:46;80.82;;;37.47;;
39982;SDS011;25670;44.782;10.356;2023-12-14T07:27:12;86.25;;;38.50;;
39982;SDS011;25670;44.782;10.356;2023-12-14T07:29:39;76.47;;;35.70;;
39982;SDS011;25670;44.782;10.356;2023-12-14T07:32:05;96.65;;;37.17;;
39982;SDS011;25670;44.782;10.356;2023-12-14T07:34:32;81.65;;;37.03;;
39982;SDS011;25670;44.782;10.356;2023-12-14T07:37:02;87.18;;;37.35;;
39982;SDS011;25670;44.782;10.356;2023-12-14T07:39:32;79.05;;;36.40;;
39982;SDS011;25670;44.782;10.356;2023-12-14T07:42:05;80.03;;;36.40;;
39982;SDS011;25670;44.782;10.356;2023-12-14T07:44:31;73.00;;;34.28;;
39982;SDS011;25670;44.782;10.356;2023-12-14T07:46:59;70.00;;;33.92;;
39982;SDS011;25670;44.782;10.356;2023-12-14T07:49:26;70.90;;;34.08;;
39982;SDS011;25670;44.782;10.356;2023-12-14T07:51:53;82.28;;;34.50;;
39982;SDS011;25670;44.782;10.356;2023-12-14T07:54:19;77.82;;;35.08;;
39982;SDS011;25670;44.782;10.356;2023-12-14T07:56:46;73.45;;;34.08;;
39982;SDS011;25670;44.782;10.356;2023-12-14T07:59:13;73.75;;;35.30;;
39982;SDS011;25670;44.782;10.356;2023-12-14T08:01:39;66.25;;;32.83;;
39982;SDS011;25670;44.782;10.356;2023-12-14T08:04:07;75.30;;;33.55;;
39982;SDS011;25670;44.782;10.356;2023-12-14T08:06:37;78.38;;;34.83;;
39982;SDS011;25670;44.782;10.356;2023-12-14T08:09:06;69.93;;;33.15;;
39982;SDS011;25670;44.782;10.356;2023-12-14T08:11:33;72.55;;;33.22;;
39982;SDS011;25670;44.782;10.356;2023-12-14T08:13:59;74.15;;;32.08;;
39982;SDS011;25670;44.782;10.356;2023-12-14T08:16:27;70.20;;;34.08;;
39982;SDS011;25670;44.782;10.356;2023-12-14T08:18:54;86.55;;;35.25;;
39982;SDS011;25670;44.782;10.356;2023-12-14T08:21:20;66.43;;;34.53;;
39982;SDS011;25670;44.782;10.356;2023-12-14T08:23:47;69.80;;;33.50;;
39982;SDS011;25670;44.782;10.356;2023-12-14T08:26:14;71.13;;;33.88;;
39982;SDS011;25670;44.782;10.356;2023-12-14T08:28:40;72.55;;;33.20;;
39982;SDS011;25670;44.782;10.356;2023-12-14T08:31:07;70.00;;;33.90;;
39982;SDS011;25670;44.782;10.356;2023-12-14T08:33:35;67.40;;;33.15;;
39982;SDS011;25670;44.782;10.356;2023-12-14T08:36:02;71.13;;;32.97;;
39982;SDS011;25670;44.782;10.356;2023-12-14T08:38:31;72.32;;;32.60;;
39982;SDS011;25670;44.782;10.356;2023-12-14T08:40:57;71.28;;;33.15;;
39982;SDS011;25670;44.782;10.356;2023-12-14T08:43:24;65.78;;;31.88;;
39982;SDS011;25670;44.782;10.356;2023-12-14T08:45:51;74.57;;;32.70;;
39982;SDS011;25670;44.782;10.356;2023-12-14T08:48:18;77.28;;;34.42;;
39982;SDS011;25670;44.782;10.356;2023-12-14T08:50:45;71.13;;;31.90;;
39982;SDS011;25670;44.782;10.356;2023-12-14T08:53:12;62.65;;;30.92;;
39982;SDS011;25670;44.782;10.356;2023-12-14T08:55:39;65.75;;;30.80;;
39982;SDS011;25670;44.782;10.356;2023-12-14T08:58:05;71.45;;;31.77;;
39982;SDS011;25670;44.782;10.356;2023-12-14T09:00:32;61.40;;;30.98;;
39982;SDS011;25670;44.782;10.356;2023-12-14T09:02:58;69.20;;;32.20;;
39982;SDS011;25670;44.782;10.356;2023-12-14T09:05:25;67.55;;;32.88;;
39982;SDS011;25670;44.782;10.356;2023-12-14T09:07:55;66.32;;;31.67;;
39982;SDS011;25670;44.782;10.356;2023-12-14T09:10:25;66.32;;;33.13;;
39982;SDS011;25670;44.782;10.356;2023-12-14T09:12:57;67.45;;;31.88;;
39982;SDS011;25670;44.782;10.356;2023-12-14T09:15:26;76.05;;;33.45;;
39982;SDS011;25670;44.782;10.356;2023-12-14T09:17:52;68.88;;;33.95;;
39982;SDS011;25670;44.782;10.356;2023-12-14T09:20:20;71.18;;;34.08;;
39982;SDS011;25670;44.782;10.356;2023-12-14T09:22:57;76.80;;;33.47;;
39982;SDS011;25670;44.782;10.356;2023-12-14T09:25:23;71.57;;;33.33;;
39982;SDS011;25670;44.782;10.356;2023-12-14T09:27:50;63.92;;;31.50;;
39982;SDS011;25670;44.782;10.356;2023-12-14T09:30:20;67.95;;;32.63;;
39982;SDS011;25670;44.782;10.356;2023-12-14T09:32:56;63.95;;;31.52;;
39982;SDS011;25670;44.782;10.356;2023-12-14T09:35:23;66.57;;;31.77;;
39982;SDS011;25670;44.782;10.356;2023-12-14T09:37:49;57.33;;;30.83;;
39982;SDS011;25670;44.782;10.356;2023-12-14T09:40:16;57.13;;;29.15;;
39982;SDS011;25670;44.782;10.356;2023-12-14T09:42:47;61.97;;;30.15;;
39982;SDS011;25670;44.782;10.356;2023-12-14T09:45:17;58.40;;;30.08;;
39982;SDS011;25670;44.782;10.356;2023-12-14T09:47:53;62.50;;;30.08;;
39982;SDS011;25670;44.782;10.356;2023-12-14T09:50:20;61.22;;;30.27;;
39982;SDS011;25670;44.782;10.356;2023-12-14T09:52:47;60.33;;;30.17;;
39982;SDS011;25670;44.782;10.356;2023-12-14T09:55:15;59.50;;;28.88;;
39982;SDS011;25670;44.782;10.356;2023-12-14T09:57:45;58.60;;;30.02;;
39982;SDS011;25670;44.782;10.356;2023-12-14T10:00:33;63.83;;;29.75;;
39982;SDS011;25670;44.782;10.356;2023-12-14T10:03:18;63.55;;;30.58;;
39982;SDS011;25670;44.782;10.356;2023-12-14T10:05:46;54.55;;;27.38;;
39982;SDS011;25670;44.782;10.356;2023-12-14T10:08:15;54.30;;;27.65;;
39982;SDS011;25670;44.782;10.356;2023-12-14T10:10:42;56.28;;;28.65;;
39982;SDS011;25670;44.782;10.356;2023-12-14T10:13:09;56.05;;;27.52;;
39982;SDS011;25670;44.782;10.356;2023-12-14T10:15:40;56.72;;;27.88;;
39982;SDS011;25670;44.782;10.356;2023-12-14T10:18:08;56.72;;;28.52;;
39982;SDS011;25670;44.782;10.356;2023-12-14T10:20:35;57.17;;;28.67;;
39982;SDS011;25670;44.782;10.356;2023-12-14T10:23:06;59.00;;;29.75;;
39982;SDS011;25670;44.782;10.356;2023-12-14T10:25:33;58.08;;;28.55;;
39982;SDS011;25670;44.782;10.356;2023-12-14T10:28:01;51.45;;;27.50;;
39982;SDS011;25670;44.782;10.356;2023-12-14T10:30:29;52.97;;;28.73;;
39982;SDS011;25670;44.782;10.356;2023-12-14T10:32:56;56.25;;;29.13;;
39982;SDS011;25670;44.782;10.356;2023-12-14T10:35:26;51.33;;;28.08;;
39982;SDS011;25670;44.782;10.356;2023-12-14T10:37:56;55.15;;;27.13;;
39982;SDS011;25670;44.782;10.356;2023-12-14T10:40:27;54.63;;;27.73;;
39982;SDS011;25670;44.782;10.356;2023-12-14T10:43:02;65.00;;;30.27;;
39982;SDS011;25670;44.782;10.356;2023-12-14T10:45:31;54.83;;;27.83;;
39982;SDS011;25670;44.782;10.356;2023-12-14T10:47:59;56.80;;;28.65;;
39982;SDS011;25670;44.782;10.356;2023-12-14T10:50:30;51.00;;;27.35;;
39982;SDS011;25670;44.782;10.356;2023-12-14T10:53:02;50.38;;;27.10;;
39982;SDS011;25670;44.782;10.356;2023-12-14T10:55:42;49.53;;;28.58;;
39982;SDS011;25670;44.782;10.356;2023-12-14T10:58:10;45.00;;;26.38;;
39982;SDS011;25670;44.782;10.356;2023-12-14T11:00:37;56.03;;;28.25;;
39982;SDS011;25670;44.782;10.356;2023-12-14T11:03:05;53.85;;;28.20;;
39982;SDS011;25670;44.782;10.356;2023-12-14T11:05:34;49.95;;;25.83;;
39982;SDS011;25670;44.782;10.356;2023-12-14T11:08:04;51.20;;;27.48;;
39982;SDS011;25670;44.782;10.356;2023-12-14T11:13:08;51.95;;;28.10;;
39982;SDS011;25670;44.782;10.356;2023-12-14T11:15:40;49.40;;;27.50;;
39982;SDS011;25670;44.782;10.356;2023-12-14T11:20:59;45.95;;;25.83;;
39982;SDS011;25670;44.782;10.356;2023-12-14T11:23:33;50.92;;;24.90;;
39982;SDS011;25670;44.782;10.356;2023-12-14T11:26:05;29.35;;;17.35;;
39982;SDS011;25670;44.782;10.356;2023-12-14T11:28:38;33.70;;;19.25;;
39982;SDS011;25670;44.782;10.356;2023-12-14T11:31:11;35.58;;;20.35;;
39982;SDS011;25670;44.782;10.356;2023-12-14T11:33:38;32.75;;;18.75;;
39982;SDS011;25670;44.782;10.356;2023-12-14T11:36:05;31.50;;;18.80;;
39982;SDS011;25670;44.782;10.356;2023-12-14T11:38:35;28.52;;;17.67;;
39982;SDS011;25670;44.782;10.356;2023-12-14T11:41:01;33.88;;;20.40;;
39982;SDS011;25670;44.782;10.356;2023-12-14T11:43:28;38.25;;;21.50;;
39982;SDS011;25670;44.782;10.356;2023-12-14T11:45:55;37.75;;;21.73;;
39982;SDS011;25670;44.782;10.356;2023-12-14T11:48:22;32.28;;;21.83;;
39982;SDS011;25670;44.782;10.356;2023-12-14T11:50:51;35.88;;;21.23;;
39982;SDS011;25670;44.782;10.356;2023-12-14T11:53:17;42.17;;;23.45;;
39982;SDS011;25670;44.782;10.356;2023-12-14T11:55:44;36.58;;;22.63;;
39982;SDS011;25670;44.782;10.356;2023-12-14T11:58:11;34.30;;;21.83;;
39982;SDS011;25670;44.782;10.356;2023-12-14T12:00:41;34.13;;;22.13;;
39982;SDS011;25670;44.782;10.356;2023-12-14T12:03:17;35.97;;;22.00;;
39982;SDS011;25670;44.782;10.356;2023-12-14T12:05:50;40.28;;;23.33;;
39982;SDS011;25670;44.782;10.356;2023-12-14T12:10:45;36.65;;;22.65;;
39982;SDS011;25670;44.782;10.356;2023-12-14T12:13:13;44.28;;;24.15;;
39982;SDS011;25670;44.782;10.356;2023-12-14T12:15:41;47.97;;;26.25;;
39982;SDS011;25670;44.782;10.356;2023-12-14T12:18:15;51.08;;;26.33;;
39982;SDS011;25670;44.782;10.356;2023-12-14T12:20:42;45.80;;;25.90;;
39982;SDS011;25670;44.782;10.356;2023-12-14T12:23:09;48.28;;;26.95;;
39982;SDS011;25670;44.782;10.356;2023-12-14T12:25:35;46.70;;;26.20;;
39982;SDS011;25670;44.782;10.356;2023-12-14T12:28:02;44.50;;;25.73;;
39982;SDS011;25670;44.782;10.356;2023-12-14T12:30:29;40.25;;;24.50;;
39982;SDS011;25670;44.782;10.356;2023-12-14T12:32:56;49.35;;;25.58;;
39982;SDS011;25670;44.782;10.356;2023-12-14T12:35:23;43.40;;;24.65;;
39982;SDS011;25670;44.782;10.356;2023-12-14T12:37:51;37.60;;;23.83;;
39982;SDS011;25670;44.782;10.356;2023-12-14T12:40:21;34.55;;;22.15;;
39982;SDS011;25670;44.782;10.356;2023-12-14T12:42:48;33.13;;;20.27;;
39982;SDS011;25670;44.782;10.356;2023-12-14T12:45:16;30.10;;;19.15;;
39982;SDS011;25670;44.782;10.356;2023-12-14T12:47:47;31.52;;;18.73;;
39982;SDS011;25670;44.782;10.356;2023-12-14T12:50:14;34.90;;;20.13;;
39982;SDS011;25670;44.782;10.356;2023-12-14T12:52:40;42.72;;;25.13;;
39982;SDS011;25670;44.782;10.356;2023-12-14T12:55:08;45.58;;;24.85;;
39982;SDS011;25670;44.782;10.356;2023-12-14T12:57:37;45.33;;;26.08;;
39982;SDS011;25670;44.782;10.356;2023-12-14T13:00:03;43.25;;;26.23;;
39982;SDS011;25670;44.782;10.356;2023-12-14T13:02:33;51.20;;;27.95;;
39982;SDS011;25670;44.782;10.356;2023-12-14T13:05:00;52.58;;;26.90;;
39982;SDS011;25670;44.782;10.356;2023-12-14T13:07:26;44.13;;;26.65;;
39982;SDS011;25670;44.782;10.356;2023-12-14T13:09:55;51.78;;;26.55;;
39982;SDS011;25670;44.782;10.356;2023-12-14T13:12:22;56.05;;;28.48;;
39982;SDS011;25670;44.782;10.356;2023-12-14T13:14:48;49.40;;;27.50;;
39982;SDS011;25670;44.782;10.356;2023-12-14T13:17:15;48.28;;;27.60;;
39982;SDS011;25670;44.782;10.356;2023-12-14T13:19:44;48.50;;;27.88;;
39982;SDS011;25670;44.782;10.356;2023-12-14T13:22:11;41.80;;;24.85;;
39982;SDS011;25670;44.782;10.356;2023-12-14T13:24:37;45.78;;;26.98;;
39982;SDS011;25670;44.782;10.356;2023-12-14T13:27:04;52.17;;;27.75;;
39982;SDS011;25670;44.782;10.356;2023-12-14T13:29:31;48.97;;;26.77;;
39982;SDS011;25670;44.782;10.356;2023-12-14T13:31:58;44.50;;;24.95;;
39982;SDS011;25670;44.782;10.356;2023-12-14T13:34:28;54.10;;;27.45;;
39982;SDS011;25670;44.782;10.356;2023-12-14T13:36:55;48.20;;;28.55;;
39982;SDS011;25670;44.782;10.356;2023-12-14T13:39:22;53.28;;;28.45;;
39982;SDS011;25670;44.782;10.356;2023-12-14T13:41:48;53.30;;;28.65;;
39982;SDS011;25670;44.782;10.356;2023-12-14T13:44:15;51.60;;;27.63;;
39982;SDS011;25670;44.782;10.356;2023-12-14T13:46:41;61.85;;;29.27;;
39982;SDS011;25670;44.782;10.356;2023-12-14T13:49:07;47.55;;;28.23;;
39982;SDS011;25670;44.782;10.356;2023-12-14T13:51:36;51.00;;;28.55;;
39982;SDS011;25670;44.782;10.356;2023-12-14T13:54:05;49.45;;;26.98;;
39982;SDS011;25670;44.782;10.356;2023-12-14T13:56:31;46.92;;;27.75;;
39982;SDS011;25670;44.782;10.356;2023-12-14T13:58:57;49.55;;;28.50;;
39982;SDS011;25670;44.782;10.356;2023-12-14T14:01:23;47.97;;;28.52;;
39982;SDS011;25670;44.782;10.356;2023-12-14T14:03:53;57.53;;;28.40;;
39982;SDS011;25670;44.782;10.356;2023-12-14T14:06:19;52.78;;;29.25;;
39982;SDS011;25670;44.782;10.356;2023-12-14T14:08:46;49.55;;;26.77;;
39982;SDS011;25670;44.782;10.356;2023-12-14T14:11:12;41.33;;;25.70;;
39982;SDS011;25670;44.782;10.356;2023-12-14T14:13:39;42.05;;;25.60;;
39982;SDS011;25670;44.782;10.356;2023-12-14T14:16:06;45.40;;;25.58;;
39982;SDS011;25670;44.782;10.356;2023-12-14T14:18:34;40.35;;;25.35;;